createdAt,value
2019-01-26T00:00:56.487Z,97593.05
2019-01-26T00:03:26.878Z,97594.01
2019-01-26T00:05:57.253Z,97589.71
2019-01-26T00:08:27.595Z,97587.31
2019-01-26T00:10:58.083Z,97590.09
2019-01-26T00:13:28.478Z,97598.75
2019-01-26T00:15:58.835Z,97588.73
2019-01-26T00:18:29.282Z,97585.23
2019-01-26T00:20:59.706Z,97577.45
2019-01-26T00:23:30.085Z,97576.80
2019-01-26T00:26:00.477Z,97561.54
2019-01-26T00:28:30.941Z,97556.45
2019-01-26T00:31:07.020Z,97558.43
2019-01-26T00:33:36.915Z,97560.28
2019-01-26T00:36:07.476Z,97557.50
2019-01-26T00:38:37.833Z,97557.44
2019-01-26T00:41:08.300Z,97556.63
2019-01-26T00:43:38.950Z,97554.77
2019-01-26T00:46:09.398Z,97553.14
2019-01-26T00:48:39.772Z,97549.69
2019-01-26T00:51:10.318Z,97550.73
2019-01-26T00:53:40.719Z,97543.75
2019-01-26T00:56:11.180Z,97542.98
2019-01-26T00:58:41.636Z,97546.57
2019-01-26T01:01:12.163Z,97539.39
2019-01-26T01:03:42.547Z,97535.39
2019-01-26T01:06:12.996Z,97543.41
2019-01-26T01:08:43.457Z,97535.52
2019-01-26T01:11:14.016Z,97534.20
2019-01-26T01:13:44.325Z,97527.33
2019-01-26T01:16:14.766Z,97525.90
2019-01-26T01:18:45.124Z,97522.59
2019-01-26T01:21:15.673Z,97517.69
2019-01-26T01:23:46.114Z,97512.73
2019-01-26T01:26:16.511Z,97504.73
2019-01-26T01:28:46.995Z,97506.92
2019-01-26T01:31:17.672Z,97509.59
2019-01-26T01:33:48.092Z,97506.37
2019-01-26T01:36:18.729Z,97498.64
2019-01-26T01:38:49.194Z,97498.70
2019-01-26T01:41:19.529Z,97509.03
2019-01-26T01:43:49.866Z,97515.14
2019-01-26T01:46:20.208Z,97515.05
2019-01-26T01:48:50.623Z,97514.55
2019-01-26T01:51:21.068Z,97524.84
2019-01-26T01:53:51.742Z,97533.25
2019-01-26T01:56:22.111Z,97525.84
2019-01-26T01:58:52.503Z,97526.38
2019-01-26T02:01:22.870Z,97520.81
2019-01-26T02:03:53.083Z,97526.76
2019-01-26T02:06:23.595Z,97511.98
2019-01-26T02:08:53.954Z,97509.80
2019-01-26T02:11:24.263Z,97501.41
2019-01-26T02:13:54.588Z,97496.58
2019-01-26T02:16:24.891Z,97496.02
2019-01-26T02:18:55.109Z,97491.50
2019-01-26T02:21:25.485Z,97491.41
2019-01-26T02:23:55.613Z,97481.14
2019-01-26T02:26:25.975Z,97476.91
2019-01-26T02:28:58.276Z,97467.16
2019-01-26T02:31:28.658Z,97464.70
2019-01-26T02:33:58.994Z,97468.45
2019-01-26T02:36:29.281Z,97467.41
2019-01-26T02:38:59.664Z,97466.83
2019-01-26T02:41:30.036Z,97471.77
2019-01-26T02:44:00.229Z,97468.59
2019-01-26T02:46:30.497Z,97464.91
2019-01-26T02:49:00.906Z,97464.84
2019-01-26T02:51:31.242Z,97462.98
2019-01-26T02:54:01.498Z,97465.25
2019-01-26T02:56:31.814Z,97460.94
2019-01-26T02:59:04.254Z,97458.33
2019-01-26T03:01:34.636Z,97457.63
2019-01-26T03:04:05.371Z,97451.90
2019-01-26T03:06:35.785Z,97445.44
2019-01-26T03:09:09.988Z,97446.42
2019-01-26T03:11:40.272Z,97450.72
2019-01-26T03:14:10.719Z,97439.37
2019-01-26T03:16:41.111Z,97431.69
2019-01-26T03:19:11.555Z,97430.77
2019-01-26T03:21:41.863Z,97425.61
2019-01-26T03:24:12.425Z,97434.52
2019-01-26T03:26:42.786Z,97431.63
2019-01-26T03:29:13.252Z,97423.98
2019-01-26T03:31:43.695Z,97420.34
2019-01-26T03:34:14.006Z,97406.19
2019-01-26T03:36:44.302Z,97406.05
2019-01-26T03:39:14.685Z,97405.84
2019-01-26T03:41:45.086Z,97403.92
2019-01-26T03:44:15.434Z,97402.36
2019-01-26T03:46:45.739Z,97408.02
2019-01-26T03:49:16.085Z,97402.78
2019-01-26T03:51:46.464Z,97395.17
2019-01-26T03:54:16.870Z,97394.36
2019-01-26T03:56:47.215Z,97390.53
2019-01-26T03:59:17.629Z,97386.70
2019-01-26T04:01:47.921Z,97384.48
2019-01-26T04:04:18.384Z,97383.38
2019-01-26T04:06:48.794Z,97378.43
2019-01-26T04:09:19.151Z,97373.51
2019-01-26T04:11:49.499Z,97378.17
2019-01-26T04:14:19.800Z,97365.72
2019-01-26T04:16:50.119Z,97373.12
2019-01-26T04:19:20.519Z,97371.35
2019-01-26T04:21:50.898Z,97366.13
2019-01-26T04:24:21.629Z,97368.24
2019-01-26T04:26:52.031Z,97367.93
2019-01-26T04:29:22.293Z,97358.16
2019-01-26T04:31:52.787Z,97369.79
2019-01-26T04:34:23.246Z,97367.17
2019-01-26T04:36:53.532Z,97363.47
2019-01-26T04:39:23.772Z,97362.87
2019-01-26T04:41:54.098Z,97364.99
2019-01-26T04:44:24.534Z,97367.80
2019-01-26T04:46:54.867Z,97369.84
2019-01-26T04:49:25.239Z,97365.50
2019-01-26T04:51:55.592Z,97362.97
2019-01-26T04:54:25.861Z,97363.50
2019-01-26T04:56:56.214Z,97355.54
2019-01-26T04:59:26.603Z,97369.00
2019-01-26T05:01:56.987Z,97365.44
2019-01-26T05:04:27.310Z,97369.59
2019-01-26T05:06:57.701Z,97374.84
2019-01-26T05:09:28.029Z,97375.43
2019-01-26T05:11:59.634Z,97374.21
2019-01-26T05:14:30.039Z,97369.19
2019-01-26T05:17:00.318Z,97375.30
2019-01-26T05:19:30.611Z,97372.50
2019-01-26T05:22:04.009Z,97366.08
2019-01-26T05:24:34.261Z,97376.26
2019-01-26T05:27:04.819Z,97378.06
2019-01-26T05:29:35.374Z,97386.20
2019-01-26T05:32:06.100Z,97376.12
2019-01-26T05:34:36.411Z,97378.45
2019-01-26T05:37:06.918Z,97375.30
2019-01-26T05:39:37.243Z,97379.16
2019-01-26T05:42:07.518Z,97379.78
2019-01-26T05:44:37.854Z,97370.11
2019-01-26T05:47:08.269Z,97374.00
2019-01-26T05:49:38.571Z,97374.58
2019-01-26T05:52:09.060Z,97368.75
2019-01-26T05:54:39.484Z,97371.02
2019-01-26T05:57:09.806Z,97368.38
2019-01-26T05:59:40.104Z,97365.55
2019-01-26T06:02:11.050Z,97367.56
2019-01-26T06:04:41.375Z,97371.28
2019-01-26T06:07:11.693Z,97366.67
2019-01-26T06:09:42.128Z,97368.97
2019-01-26T06:12:12.602Z,97370.23
2019-01-26T06:14:43.021Z,97363.00
2019-01-26T06:17:13.426Z,97375.94
2019-01-26T06:19:43.971Z,97375.80
2019-01-26T06:22:14.322Z,97382.02
2019-01-26T06:24:44.737Z,97378.30
2019-01-26T06:27:15.203Z,97386.19
2019-01-26T06:29:45.581Z,97388.80
2019-01-26T06:32:16.856Z,97393.55
2019-01-26T06:34:47.206Z,97390.31
2019-01-26T06:37:17.613Z,97398.80
2019-01-26T06:39:47.981Z,97392.34
2019-01-26T06:42:18.306Z,97387.69
2019-01-26T06:44:48.698Z,97394.17
2019-01-26T06:47:19.066Z,97379.20
2019-01-26T06:49:49.297Z,97379.93
2019-01-26T06:52:19.774Z,97377.74
2019-01-26T06:54:50.265Z,97379.80
2019-01-26T06:57:20.708Z,97384.25
2019-01-26T06:59:51.046Z,97391.23
2019-01-26T07:02:21.517Z,97395.17
2019-01-26T07:05:00.090Z,97393.83
2019-01-26T07:07:30.625Z,97401.72
2019-01-26T07:10:00.928Z,97407.77
2019-01-26T07:12:31.478Z,97408.58
2019-01-26T07:15:01.888Z,97412.69
2019-01-26T07:17:32.426Z,97417.13
2019-01-26T07:20:02.813Z,97413.89
2019-01-26T07:22:33.195Z,97412.35
2019-01-26T07:25:03.615Z,97408.52
2019-01-26T07:27:33.928Z,97410.62
2019-01-26T07:30:05.070Z,97404.88
2019-01-26T07:32:35.511Z,97398.53
2019-01-26T07:35:06.267Z,97393.36
2019-01-26T07:37:36.634Z,97397.00
2019-01-26T07:40:10.321Z,97400.60
2019-01-26T07:42:40.654Z,97393.91
2019-01-26T07:45:12.101Z,97398.52
2019-01-26T07:47:42.629Z,97388.27
2019-01-26T07:50:17.833Z,97391.55
2019-01-26T07:52:49.174Z,97385.75
2019-01-26T07:55:19.679Z,97386.13
2019-01-26T07:57:50.251Z,97379.11
2019-01-26T08:00:26.286Z,97388.78
2019-01-26T08:02:56.767Z,97380.58
2019-01-26T08:05:27.681Z,97371.69
2019-01-26T08:07:58.107Z,97380.78
2019-01-26T08:10:28.631Z,97367.72
2019-01-26T08:12:59.034Z,97369.44
2019-01-26T08:15:33.665Z,97373.13
2019-01-26T08:18:05.069Z,97378.25
2019-01-26T08:20:35.511Z,97375.23
2019-01-26T08:23:06.008Z,97371.99
2019-01-26T08:25:36.482Z,97379.94
2019-01-26T08:28:06.918Z,97379.37
2019-01-26T08:30:37.424Z,97378.36
2019-01-26T08:33:07.750Z,97389.09
2019-01-26T08:35:38.152Z,97384.98
2019-01-26T08:38:13.295Z,97381.47
2019-01-26T08:40:43.678Z,97390.70
2019-01-26T08:43:14.085Z,97386.17
2019-01-26T08:45:44.596Z,97378.30
2019-01-26T08:48:15.203Z,97381.11
2019-01-26T08:50:45.642Z,97378.14
2019-01-26T08:53:18.302Z,97364.59
2019-01-26T08:55:48.636Z,97362.03
2019-01-26T08:58:19.167Z,97356.39
2019-01-26T09:00:49.610Z,97360.98
2019-01-26T09:03:44.956Z,97369.33
2019-01-26T09:06:36.743Z,97384.50
2019-01-26T09:09:12.246Z,97387.53
2019-01-26T09:11:42.782Z,97385.20
2019-01-26T09:14:13.321Z,97381.13
2019-01-26T09:16:43.878Z,97378.80
2019-01-26T09:19:14.337Z,97375.39
2019-01-26T09:21:44.884Z,97381.98
2019-01-26T09:24:15.739Z,97389.25
2019-01-26T09:26:46.227Z,97397.08
2019-01-26T09:29:17.652Z,97395.80
2019-01-26T09:31:48.586Z,97395.57
2019-01-26T09:34:18.917Z,97398.47
2019-01-26T09:36:49.404Z,97385.64
2019-01-26T09:39:19.859Z,97369.02
2019-01-26T09:41:50.338Z,97363.14
2019-01-26T09:44:21.869Z,97357.75
2019-01-26T09:46:52.791Z,97363.98
2019-01-26T09:49:23.128Z,97353.13
2019-01-26T09:51:53.746Z,97353.35
2019-01-26T09:54:24.331Z,97351.89
2019-01-26T09:56:54.804Z,97354.10
2019-01-26T09:59:25.122Z,97342.75
2019-01-26T10:01:55.496Z,97344.27
2019-01-26T10:04:25.871Z,97348.10
2019-01-26T10:06:56.320Z,97353.97
2019-01-26T10:09:26.842Z,97365.53
2019-01-26T10:11:57.409Z,97357.19
2019-01-26T10:14:27.915Z,97365.09
2019-01-26T10:16:58.437Z,97364.66
2019-01-26T10:19:28.804Z,97361.28
2019-01-26T10:21:59.543Z,97362.44
2019-01-26T10:24:30.522Z,97360.75
2019-01-26T10:27:01.212Z,97356.52
2019-01-26T10:29:32.810Z,97352.17
2019-01-26T10:32:03.547Z,97361.45
2019-01-26T10:34:35.735Z,97354.44
2019-01-26T10:37:13.218Z,97359.98
2019-01-26T10:39:43.684Z,97355.81
2019-01-26T10:42:31.292Z,97358.38
2019-01-26T10:45:02.764Z,97356.55
2019-01-26T10:47:33.164Z,97343.84
2019-01-26T10:50:03.628Z,97347.48
2019-01-26T10:52:34.114Z,97340.21
2019-01-26T10:55:05.270Z,97341.07
2019-01-26T10:57:35.726Z,97343.22
2019-01-26T11:00:11.272Z,97342.91
2019-01-26T11:02:41.711Z,97338.78
2019-01-26T11:05:12.189Z,97340.63
2019-01-26T11:07:42.516Z,97341.55
2019-01-26T11:10:13.930Z,97339.13
2019-01-26T11:12:44.400Z,97331.13
2019-01-26T11:15:15.023Z,97329.39
2019-01-26T11:17:45.516Z,97317.64
2019-01-26T11:20:16.400Z,97312.75
2019-01-26T11:22:46.878Z,97306.53
2019-01-26T11:25:18.451Z,97306.48
2019-01-26T11:27:48.886Z,97296.61
2019-01-26T11:30:20.677Z,97298.66
2019-01-26T11:32:51.150Z,97299.80
2019-01-26T11:35:21.622Z,97297.70
2019-01-26T11:37:52.185Z,97291.10
2019-01-26T11:40:23.726Z,97285.52
2019-01-26T11:42:54.221Z,97289.34
2019-01-26T11:45:42.089Z,97283.53
2019-01-26T11:48:19.737Z,97278.15
2019-01-26T11:50:56.016Z,97278.08
2019-01-26T11:53:27.321Z,97279.55
2019-01-26T11:56:08.978Z,97256.51
2019-01-26T11:58:39.394Z,97250.00
2019-01-26T12:01:22.111Z,97247.78
2019-01-26T12:04:10.777Z,97242.37
2019-01-26T12:06:49.792Z,97245.55
2019-01-26T12:09:20.418Z,97243.25
2019-01-26T12:11:50.872Z,97235.50
2019-01-26T12:14:21.162Z,97238.85
2019-01-26T12:16:51.703Z,97234.67
2019-01-26T12:19:22.608Z,97233.16
2019-01-26T12:21:52.989Z,97233.44
2019-01-26T12:24:23.729Z,97222.52
2019-01-26T12:26:54.269Z,97229.60
2019-01-26T12:29:24.655Z,97229.55
2019-01-26T12:31:55.026Z,97221.98
2019-01-26T12:34:25.444Z,97225.30
2019-01-26T12:36:55.859Z,97220.08
2019-01-26T12:39:26.418Z,97219.61
2019-01-26T12:41:56.786Z,97220.12
2019-01-26T12:44:27.255Z,97214.98
2019-01-26T12:46:57.927Z,97219.30
2019-01-26T12:49:30.842Z,97216.07
2019-01-26T12:52:04.877Z,97215.60
2019-01-26T12:54:35.003Z,97207.65
2019-01-26T12:57:06.046Z,97196.50
2019-01-26T12:59:36.555Z,97197.89
2019-01-26T13:02:09.082Z,97192.02
2019-01-26T13:04:39.804Z,97197.21
2019-01-26T13:07:10.185Z,97197.72
2019-01-26T13:09:40.566Z,97197.53
2019-01-26T13:12:11.092Z,97195.69
2019-01-26T13:14:41.616Z,97190.48
2019-01-26T13:17:12.123Z,97190.48
2019-01-26T13:19:42.575Z,97188.58
2019-01-26T13:22:13.094Z,97189.41
2019-01-26T13:24:43.374Z,97186.89
2019-01-26T13:27:18.854Z,97184.12
2019-01-26T13:29:49.252Z,97183.41
2019-01-26T13:32:19.963Z,97177.97
2019-01-26T13:34:50.670Z,97176.52
2019-01-26T13:37:21.212Z,97164.13
2019-01-26T13:39:51.542Z,97163.83
2019-01-26T13:42:21.797Z,97171.02
2019-01-26T13:44:52.163Z,97170.85
2019-01-26T13:47:24.405Z,97171.23
2019-01-26T13:49:54.731Z,97170.09
2019-01-26T13:52:25.124Z,97169.11
2019-01-26T13:54:55.614Z,97165.41
2019-01-26T13:57:25.921Z,97155.48
2019-01-26T13:59:56.216Z,97153.05
2019-01-26T14:02:26.602Z,97158.45
2019-01-26T14:04:56.991Z,97154.77
2019-01-26T14:07:27.219Z,97149.31
2019-01-26T14:09:57.575Z,97152.71
2019-01-26T14:12:30.350Z,97146.55
2019-01-26T14:15:00.793Z,97144.83
2019-01-26T14:17:31.317Z,97144.19
2019-01-26T14:20:02.295Z,97144.91
2019-01-26T14:22:32.664Z,97152.39
2019-01-26T14:25:03.066Z,97146.47
2019-01-26T14:27:33.457Z,97150.59
2019-01-26T14:30:04.782Z,97137.88
2019-01-26T14:32:35.100Z,97139.88
2019-01-26T14:35:05.755Z,97134.25
2019-01-26T14:37:35.983Z,97136.09
2019-01-26T14:40:07.166Z,97136.30
2019-01-26T14:42:37.537Z,97127.58
2019-01-26T14:45:09.473Z,97122.25
2019-01-26T14:47:39.816Z,97123.86
2019-01-26T14:50:11.997Z,97120.34
2019-01-26T14:52:42.493Z,97120.90
2019-01-26T14:55:17.007Z,97108.38
2019-01-26T14:57:47.370Z,97112.17
2019-01-26T15:00:25.429Z,97117.27
2019-01-26T15:02:55.882Z,97111.83
2019-01-26T15:05:27.023Z,97107.58
2019-01-26T15:07:58.164Z,97112.00
2019-01-26T15:10:28.592Z,97103.31
2019-01-26T15:12:58.954Z,97108.28
2019-01-26T15:15:29.435Z,97112.92
2019-01-26T15:17:59.708Z,97108.91
2019-01-26T15:20:34.108Z,97104.66
2019-01-26T15:23:04.615Z,97101.46
2019-01-26T15:25:34.969Z,97095.48
2019-01-26T15:28:05.889Z,97090.78
2019-01-26T15:30:42.553Z,97093.88
2019-01-26T15:33:15.162Z,97090.80
2019-01-26T15:35:45.607Z,97089.22
2019-01-26T15:38:15.992Z,97085.72
2019-01-26T15:40:46.410Z,97088.03
2019-01-26T15:43:16.807Z,97081.84
2019-01-26T15:45:49.808Z,97076.73
2019-01-26T15:48:23.103Z,97073.00
2019-01-26T15:50:53.532Z,97067.08
2019-01-26T15:53:23.776Z,97067.42
2019-01-26T15:55:54.110Z,97057.37
2019-01-26T15:58:24.557Z,97055.86
2019-01-26T16:00:54.795Z,97060.03
2019-01-26T16:03:25.152Z,97059.22
2019-01-26T16:05:55.508Z,97063.98
2019-01-26T16:08:25.929Z,97063.48
2019-01-26T16:10:56.094Z,97061.00
2019-01-26T16:13:26.558Z,97054.87
2019-01-26T16:15:56.867Z,97055.35
2019-01-26T16:18:27.306Z,97053.11
2019-01-26T16:20:57.731Z,97051.25
2019-01-26T16:23:28.162Z,97046.03
2019-01-26T16:25:58.587Z,97052.18
2019-01-26T16:28:29.037Z,97044.56
2019-01-26T16:31:00.086Z,97037.77
2019-01-26T16:33:30.489Z,97037.87
2019-01-26T16:36:00.711Z,97036.63
2019-01-26T16:38:32.979Z,97032.79
2019-01-26T16:41:03.283Z,97030.02
2019-01-26T16:43:34.961Z,97019.85
2019-01-26T16:46:05.798Z,97029.66
2019-01-26T16:48:36.425Z,97024.95
2019-01-26T16:51:06.882Z,97019.27
2019-01-26T16:53:37.377Z,97019.77
2019-01-26T16:56:10.074Z,97018.45
2019-01-26T16:58:41.373Z,97007.99
2019-01-26T17:01:11.764Z,97005.60
2019-01-26T17:03:42.151Z,96994.95
2019-01-26T17:06:12.548Z,96995.09
2019-01-26T17:08:42.846Z,96982.54
2019-01-26T17:11:16.801Z,96982.41
2019-01-26T17:13:47.161Z,96978.16
2019-01-26T17:16:17.569Z,96970.34
2019-01-26T17:18:48.098Z,96967.16
2019-01-26T17:21:18.472Z,96960.87
2019-01-26T17:23:48.941Z,96968.42
2019-01-26T17:26:19.328Z,96969.69
2019-01-26T17:28:49.846Z,96966.95
2019-01-26T17:31:20.415Z,96962.98
2019-01-26T17:33:50.698Z,96962.45
2019-01-26T17:36:21.851Z,96959.47
2019-01-26T17:38:52.201Z,96965.34
2019-01-26T17:41:22.363Z,96965.30
2019-01-26T17:43:52.688Z,96951.64
2019-01-26T17:46:23.028Z,96952.11
2019-01-26T17:48:53.368Z,96949.04
2019-01-26T17:51:24.035Z,96948.31
2019-01-26T17:53:54.471Z,96939.89
2019-01-26T17:56:24.709Z,96933.77
2019-01-26T17:58:55.029Z,96934.33
2019-01-26T18:01:25.474Z,96941.08
2019-01-26T18:03:55.859Z,96928.19
2019-01-26T18:06:26.231Z,96936.25
2019-01-26T18:08:56.592Z,96937.73
2019-01-26T18:11:26.932Z,96936.92
2019-01-26T18:13:57.411Z,96930.73
2019-01-26T18:16:27.732Z,96936.59
2019-01-26T18:18:58.140Z,96934.27
2019-01-26T18:21:28.595Z,96939.88
2019-01-26T18:23:59.461Z,96934.53
2019-01-26T18:26:29.865Z,96938.48
2019-01-26T18:29:00.350Z,96930.02
2019-01-26T18:31:30.720Z,96918.25
2019-01-26T18:34:00.915Z,96921.77
2019-01-26T18:36:31.522Z,96913.61
2019-01-26T18:39:01.990Z,96908.94
2019-01-26T18:41:32.522Z,96901.69
2019-01-26T18:44:02.884Z,96905.05
2019-01-26T18:46:56.548Z,96905.40
2019-01-26T18:49:27.033Z,96900.38
2019-01-26T18:51:57.453Z,96886.94
2019-01-26T18:54:27.800Z,96879.01
2019-01-26T18:56:58.227Z,96871.11
2019-01-26T18:59:28.665Z,96873.79
2019-01-26T19:01:59.239Z,96875.41
2019-01-26T19:04:48.814Z,96870.19
2019-01-26T19:07:19.173Z,96873.06
2019-01-26T19:09:49.551Z,96867.45
2019-01-26T19:12:20.052Z,96872.77
2019-01-26T19:14:50.288Z,96869.03
2019-01-26T19:17:20.637Z,96867.54
2019-01-26T19:19:51.036Z,96863.88
2019-01-26T19:22:21.405Z,96862.75
2019-01-26T19:24:51.686Z,96859.89
2019-01-26T19:27:22.133Z,96851.48
2019-01-26T19:29:52.495Z,96856.62
2019-01-26T19:32:22.857Z,96835.77
2019-01-26T19:34:54.307Z,96842.02
2019-01-26T19:37:24.647Z,96836.28
2019-01-26T19:39:55.039Z,96835.38
2019-01-26T19:42:25.540Z,96823.36
2019-01-26T19:44:55.865Z,96820.94
2019-01-26T19:47:26.271Z,96822.60
2019-01-26T19:49:56.612Z,96818.77
2019-01-26T19:52:26.999Z,96813.38
2019-01-26T19:54:57.394Z,96804.79
2019-01-26T19:57:27.763Z,96802.97
2019-01-26T19:59:58.321Z,96796.59
2019-01-26T20:02:29.890Z,96789.05
2019-01-26T20:05:00.493Z,96781.19
2019-01-26T20:07:31.061Z,96778.21
2019-01-26T20:10:01.606Z,96771.75
2019-01-26T20:12:32.311Z,96775.62
2019-01-26T20:15:03.359Z,96769.33
2019-01-26T20:17:34.047Z,96769.80
2019-01-26T20:20:05.537Z,96769.66
2019-01-26T20:22:35.953Z,96770.47
2019-01-26T20:25:07.202Z,96761.77
2019-01-26T20:27:37.605Z,96757.34
2019-01-26T20:30:12.884Z,96753.14
2019-01-26T20:32:43.530Z,96748.52
2019-01-26T20:35:13.927Z,96739.05
2019-01-26T20:37:44.248Z,96731.77
2019-01-26T20:40:16.804Z,96726.78
2019-01-26T20:42:47.225Z,96724.27
2019-01-26T20:45:21.074Z,96724.37
2019-01-26T20:47:51.661Z,96722.80
2019-01-26T20:50:23.667Z,96712.30
2019-01-26T20:52:54.135Z,96705.34
2019-01-26T20:55:24.658Z,96705.88
2019-01-26T20:57:55.176Z,96694.34
2019-01-26T21:00:28.907Z,96693.55
2019-01-26T21:02:59.457Z,96685.03
2019-01-26T21:05:29.893Z,96683.05
2019-01-26T21:08:00.231Z,96674.59
2019-01-26T21:10:31.405Z,96669.80
2019-01-26T21:13:03.970Z,96660.06
2019-01-26T21:15:34.427Z,96656.70
2019-01-26T21:18:04.881Z,96650.42
2019-01-26T21:20:35.337Z,96638.25
2019-01-26T21:23:06.739Z,96638.08
2019-01-26T21:25:37.230Z,96625.31
2019-01-26T21:28:07.802Z,96615.48
2019-01-26T21:30:38.201Z,96605.98
2019-01-26T21:33:08.685Z,96590.41
2019-01-26T21:35:39.035Z,96585.95
2019-01-26T21:38:09.532Z,96585.30
2019-01-26T21:40:41.150Z,96572.95
2019-01-26T21:43:11.629Z,96570.51
2019-01-26T21:45:57.193Z,96570.73
2019-01-26T21:48:27.617Z,96557.97
2019-01-26T21:50:57.944Z,96554.72
2019-01-26T21:53:28.340Z,96551.57
2019-01-26T21:55:58.795Z,96547.73
2019-01-26T21:58:29.061Z,96548.51
2019-01-26T22:00:59.591Z,96547.16
2019-01-26T22:03:31.050Z,96536.36
2019-01-26T22:06:02.253Z,96542.07
2019-01-26T22:08:32.578Z,96540.83
2019-01-26T22:11:03.891Z,96534.17
2019-01-26T22:13:34.442Z,96545.65
2019-01-26T22:16:04.951Z,96541.70
2019-01-26T22:18:35.295Z,96539.59
2019-01-26T22:21:07.953Z,96542.75
2019-01-26T22:23:38.831Z,96538.06
2019-01-26T22:26:09.339Z,96535.94
2019-01-26T22:28:39.810Z,96547.17
2019-01-26T22:31:10.133Z,96537.25
2019-01-26T22:33:40.371Z,96533.92
2019-01-26T22:36:10.688Z,96521.06
2019-01-26T22:38:41.103Z,96518.20
2019-01-26T22:41:11.511Z,96509.28
2019-01-26T22:43:41.750Z,96498.48
2019-01-26T22:46:12.159Z,96490.74
2019-01-26T22:48:42.534Z,96486.84
2019-01-26T22:51:14.669Z,96484.63
2019-01-26T22:53:45.133Z,96477.31
2019-01-26T22:56:16.994Z,96478.38
2019-01-26T22:58:47.454Z,96478.08
2019-01-26T23:01:35.138Z,96476.64
2019-01-26T23:04:50.399Z,96475.97
2019-01-26T23:07:57.313Z,96464.41
2019-01-26T23:11:36.101Z,96462.58
2019-01-26T23:15:23.642Z,96455.67
2019-01-26T23:18:46.253Z,96452.49
2019-01-26T23:21:47.420Z,96451.82
2019-01-26T23:25:22.033Z,96437.56
2019-01-26T23:28:14.984Z,96444.73
2019-01-26T23:31:21.667Z,96438.08
2019-01-26T23:33:54.015Z,96421.64
2019-01-26T23:36:24.490Z,96422.95
2019-01-26T23:39:01.937Z,96411.27
2019-01-26T23:41:27.108Z,96409.28
2019-01-26T23:43:57.510Z,96409.08
2019-01-26T23:46:27.838Z,96396.22
2019-01-26T23:48:58.874Z,96395.41
2019-01-26T23:51:29.356Z,96383.89
2019-01-26T23:53:59.717Z,96382.09
2019-01-26T23:56:30.050Z,96375.19
2019-01-26T23:59:00.390Z,96367.10
